Time;durP1;ratioP1;P1;durP2;ratioP2;P2;SDS_P1;SDS_P2;PMS_P1;PMS_P2;Temp;Humidity;BMP_temperature;BMP_pressure;BME280_temperature;BME280_humidity;BME280_pressure;Samples;Min_cycle;Max_cycle;Signal;HPM_P1;HPM_P2
2022/02/06 00:01:24;;;;;;;3.92;1.80;;;7.20;91.30;;;;;;6183476;23;20084;-71
2022/02/06 00:03:56;;;;;;;4.15;1.80;;;7.20;91.30;;;;;;6183463;23;20084;-71
2022/02/06 00:06:21;;;;;;;;;;;7.30;91.40;;;;;;6183811;23;20007;-71
2022/02/06 00:08:47;;;;;;;4.20;1.92;;;7.30;91.40;;;;;;6183563;23;19932;-71
2022/02/06 00:11:12;;;;;;;5.72;2.10;;;7.20;91.30;;;;;;6182790;23;19998;-72
2022/02/06 00:13:38;;;;;;;7.78;2.67;;;7.40;91.40;;;;;;6182674;23;20005;-71
2022/02/06 00:16:04;;;;;;;4.00;1.95;;;7.30;91.60;;;;;;6181941;23;19997;-71
2022/02/06 00:18:30;;;;;;;4.93;2.15;;;7.30;91.40;;;;;;6182616;23;20021;-72
2022/02/06 00:21:00;;;;;;;5.03;2.03;;;7.30;91.40;;;;;;6182995;23;20305;-72
2022/02/06 00:23:28;;;;;;;5.55;1.85;;;7.30;91.50;;;;;;6182800;23;20028;-72
2022/02/06 00:26:01;;;;;;;6.40;2.08;;;7.30;91.50;;;;;;6184376;23;20066;-72
2022/02/06 00:28:39;;;;;;;8.73;2.95;;;7.40;91.60;;;;;;6152602;23;20034;-72
2022/02/06 00:31:18;;;;;;;5.47;2.10;;;7.30;91.60;;;;;;6183414;23;20027;-71
2022/02/06 00:34:13;;;;;;;6.20;2.50;;;7.40;91.60;;;;;;6184570;23;20845;-71
2022/02/06 00:39:06;;;;;;;6.75;1.85;;;7.40;91.60;;;;;;6184038;23;20013;-71
2022/02/06 00:41:33;;;;;;;6.90;2.33;;;7.40;91.60;;;;;;6184687;23;20417;-71
2022/02/06 00:44:04;;;;;;;4.00;1.88;;;7.40;91.60;;;;;;6184029;23;19997;-71
2022/02/06 00:46:31;;;;;;;5.15;2.05;;;7.40;91.70;;;;;;6158044;23;20025;-71
2022/02/06 00:49:00;;;;;;;5.68;2.33;;;7.40;91.70;;;;;;6184170;23;19997;-71
2022/02/06 00:51:41;;;;;;;4.13;2.13;;;7.50;91.70;;;;;;6184288;23;20429;-72
2022/02/06 00:54:07;;;;;;;4.88;2.40;;;7.50;91.70;;;;;;6184002;23;20055;-71
2022/02/06 00:56:32;;;;;;;8.02;2.88;;;7.50;91.80;;;;;;6184649;23;20001;-72
2022/02/06 00:58:58;;;;;;;7.32;2.33;;;7.40;91.80;;;;;;6184457;23;20117;-72
2022/02/06 01:01:24;;;;;;;5.00;2.47;;;7.40;91.80;;;;;;6184239;23;20016;-71
2022/02/06 01:03:49;;;;;;;3.92;2.13;;;7.40;91.80;;;;;;6182852;23;20004;-71
2022/02/06 01:06:15;;;;;;;4.63;2.28;;;7.40;91.80;;;;;;6184568;23;20001;-72
2022/02/06 01:08:41;;;;;;;6.20;2.42;;;7.40;91.90;;;;;;6184535;23;20306;-72
2022/02/06 01:11:10;;;;;;;7.00;2.30;;;7.40;91.90;;;;;;6184307;23;20004;-72
2022/02/06 01:13:48;;;;;;;5.88;2.53;;;7.50;91.90;;;;;;6183154;23;20005;-72
2022/02/06 01:16:21;;;;;;;6.15;2.40;;;7.40;91.90;;;;;;6157442;23;20006;-72
2022/02/06 01:18:57;;;;;;;5.35;2.50;;;7.50;92.00;;;;;;6184487;23;20032;-72
2022/02/06 01:21:52;;;;;;;8.48;2.95;;;7.40;92.00;;;;;;6184151;23;20008;-72
2022/02/06 01:24:25;;;;;;;5.00;2.38;;;7.40;92.00;;;;;;6184032;23;20004;-72
2022/02/06 01:26:57;;;;;;;6.40;2.63;;;7.40;92.00;;;;;;6184333;23;19997;-72
2022/02/06 01:29:39;;;;;;;6.43;2.70;;;7.40;92.00;;;;;;6183926;23;20370;-72
2022/02/06 01:32:11;;;;;;;6.03;2.45;;;7.40;92.10;;;;;;6183892;23;20009;-72
2022/02/06 01:34:44;;;;;;;5.20;2.40;;;7.40;92.10;;;;;;6182147;23;20008;-72
2022/02/06 01:39:59;;;;;;;4.60;1.95;;;7.40;92.10;;;;;;6183828;23;20109;-72
2022/02/06 01:42:33;;;;;;;5.15;2.10;;;7.40;92.10;;;;;;6183770;23;20001;-72
2022/02/06 01:45:24;;;;;;;3.53;1.85;;;7.40;92.10;;;;;;6184007;23;19997;-72
2022/02/06 02:01:29;;;;;;;5.90;2.50;;;7.50;92.20;;;;;;6183336;23;20031;-72
2022/02/06 02:09:47;;;;;;;5.70;2.33;;;7.40;92.20;;;;;;6183773;23;20080;-72
2022/02/06 02:12:22;;;;;;;5.03;1.83;;;7.60;92.30;;;;;;6183588;23;20009;-72
2022/02/06 02:17:44;;;;;;;5.72;1.85;;;7.60;92.30;;;;;;6182419;23;20005;-72
2022/02/06 02:20:37;;;;;;;5.20;1.98;;;7.50;92.20;;;;;;6184334;23;20429;-72
2022/02/06 02:23:23;;;;;;;5.32;2.03;;;7.60;92.30;;;;;;6183549;23;20044;-73
2022/02/06 02:28:56;;;;;;;5.05;2.03;;;7.60;92.30;;;;;;6183684;23;20017;-72
2022/02/06 02:31:20;;;;;;;4.68;1.83;;;7.60;92.30;;;;;;6181931;23;20013;-72
2022/02/06 02:44:57;;;;;;;5.45;1.92;;;7.60;92.30;;;;;;6183418;23;20009;-72
2022/02/06 02:47:17;;;;;;;4.43;2.00;;;7.60;92.40;;;;;;6183233;23;20456;-72
2022/02/06 02:49:52;;;;;;;5.70;2.00;;;7.60;92.40;;;;;;6183570;23;20513;-72
2022/02/06 02:52:36;;;;;;;2.97;1.77;;;7.60;92.40;;;;;;6180785;23;20008;-72
2022/02/06 02:55:18;;;;;;;6.78;1.85;;;7.60;92.40;;;;;;6182018;23;20302;-72
2022/02/06 02:57:50;;;;;;;4.63;1.90;;;7.60;92.40;;;;;;6183791;23;20013;-72
2022/02/06 03:00:27;;;;;;;4.40;1.95;;;7.60;92.40;;;;;;6184159;23;20016;-74
2022/02/06 03:03:02;;;;;;;4.65;2.03;;;7.60;92.40;;;;;;6182942;23;20005;-73
2022/02/06 03:05:28;;;;;;;5.93;2.30;;;7.60;92.40;;;;;;6183559;23;20004;-72
2022/02/06 03:07:54;;;;;;;5.60;2.10;;;7.60;92.50;;;;;;6184026;23;20468;-72
2022/02/06 03:10:20;;;;;;;6.35;2.20;;;7.60;92.50;;;;;;6183455;23;20063;-72
2022/02/06 03:12:50;;;;;;;6.07;2.28;;;7.60;92.50;;;;;;6184230;23;20040;-72
2022/02/06 03:15:37;;;;;;;5.68;2.42;;;7.60;92.50;;;;;;6184212;23;20005;-72
2022/02/06 03:18:03;;;;;;;4.43;1.67;;;7.50;92.50;;;;;;6182159;23;20009;-72
2022/02/06 03:20:31;;;;;;;4.20;1.60;;;7.60;92.60;;;;;;6184020;23;20313;-72
2022/02/06 03:23:01;;;;;;;4.82;1.80;;;7.60;92.60;;;;;;6181313;23;20087;-72
2022/02/06 03:25:27;;;;;;;3.92;1.73;;;7.50;92.50;;;;;;6183901;23;20019;-73
2022/02/06 03:27:53;;;;;;;4.10;1.75;;;7.60;92.60;;;;;;6183682;23;20001;-72
2022/02/06 03:30:20;;;;;;;5.55;1.80;;;7.60;92.60;;;;;;6183814;23;20017;-73
2022/02/06 03:32:47;;;;;;;7.35;1.95;;;7.60;92.60;;;;;;6181974;23;20009;-72
2022/02/06 03:35:13;;;;;;;4.57;2.13;;;7.60;92.60;;;;;;6182046;23;20001;-72
2022/02/06 03:37:41;;;;;;;2.33;1.52;;;7.50;92.60;;;;;;6183420;23;20013;-72
2022/02/06 03:40:09;;;;;;;3.83;1.85;;;7.50;92.60;;;;;;6183109;23;20009;-72
2022/02/06 03:42:44;;;;;;;4.25;2.10;;;7.50;92.70;;;;;;6181904;23;20005;-72
2022/02/06 03:45:17;;;;;;;3.17;1.85;;;7.50;92.70;;;;;;6183407;23;19997;-72
2022/02/06 03:47:51;;;;;;;3.65;1.90;;;7.50;92.70;;;;;;6183051;23;20079;-72
2022/02/06 03:50:18;;;;;;;6.15;2.42;;;7.50;92.70;;;;;;6181936;23;20005;-72
2022/02/06 03:52:48;;;;;;;4.63;1.80;;;7.50;92.70;;;;;;6181421;23;20330;-72
2022/02/06 03:55:22;;;;;;;3.80;1.75;;;7.50;92.80;;;;;;6183149;23;20437;-72
2022/02/06 03:57:50;;;;;;;2.78;1.73;;;7.50;92.80;;;;;;6184853;23;20084;-72
2022/02/06 04:00:18;;;;;;;3.22;1.38;;;7.40;92.80;;;;;;6184923;23;20012;-72
2022/02/06 04:02:45;;;;;;;6.72;2.25;;;7.50;92.80;;;;;;6183702;23;20008;-72
2022/02/06 04:05:11;;;;;;;2.63;1.45;;;7.50;92.80;;;;;;6185031;23;20076;-72
2022/02/06 04:07:37;;;;;;;5.72;2.00;;;7.50;92.80;;;;;;6185034;23;20028;-72
2022/02/06 04:10:04;;;;;;;3.28;1.70;;;7.50;92.80;;;;;;6185007;23;20012;-72
2022/02/06 04:12:30;;;;;;;7.20;1.70;;;7.50;92.80;;;;;;6184254;23;20076;-72
2022/02/06 04:15:00;;;;;;;2.90;1.55;;;7.50;92.80;;;;;;6184797;23;20010;-72
2022/02/06 04:17:29;;;;;;;3.70;1.60;;;7.50;92.80;;;;;;6184287;23;20016;-72
2022/02/06 04:19:55;;;;;;;2.17;1.50;;;7.50;92.80;;;;;;6182565;23;20029;-72
2022/02/06 04:22:22;;;;;;;2.15;1.30;;;7.50;92.90;;;;;;6184355;23;20001;-72
2022/02/06 04:24:49;;;;;;;5.78;1.75;;;7.40;92.80;;;;;;6184160;23;20001;-72
2022/02/06 04:27:15;;;;;;;2.83;1.50;;;7.40;92.80;;;;;;6184173;23;20437;-72
2022/02/06 04:29:41;;;;;;;3.15;1.50;;;7.50;92.90;;;;;;6184672;23;20418;-72
2022/02/06 04:32:08;;;;;;;3.85;1.65;;;7.40;92.90;;;;;;6184063;23;20009;-72
2022/02/06 04:34:35;;;;;;;2.75;1.45;;;7.50;92.90;;;;;;6184668;23;20001;-72
2022/02/06 04:37:10;;;;;;;3.13;1.50;;;7.40;92.90;;;;;;6184178;23;20071;-72
2022/02/06 04:42:37;;;;;;;3.03;1.50;;;7.50;92.90;;;;;;6160938;23;20341;-72
2022/02/06 04:48:18;;;;;;;4.07;1.55;;;7.50;92.90;;;;;;6184058;23;20360;-72
2022/02/06 04:53:47;;;;;;;4.38;1.73;;;7.50;92.90;;;;;;6184107;23;20009;-73
2022/02/06 05:15:10;;;;;;;3.65;1.55;;;7.60;92.90;;;;;;6182868;23;20005;-72
2022/02/06 05:20:49;;;;;;;2.47;1.50;;;7.60;92.90;;;;;;6184003;23;20068;-72
2022/02/06 05:23:35;;;;;;;3.55;1.83;;;7.70;92.90;;;;;;6183897;23;20338;-73
2022/02/06 05:26:27;;;;;;;3.88;2.00;;;7.70;92.90;;;;;;6183852;23;20028;-72
2022/02/06 05:34:05;;;;;;;3.03;1.80;;;7.70;92.80;;;;;;6184060;23;20830;-72
2022/02/06 05:36:31;;;;;;;3.28;1.88;;;7.70;92.80;;;;;;6182745;23;19997;-72
2022/02/06 05:38:57;;;;;;;4.53;1.85;;;7.80;92.90;;;;;;6182406;23;20024;-72
2022/02/06 05:41:23;;;;;;;7.07;2.22;;;7.80;92.90;;;;;;6182487;23;20056;-72
2022/02/06 05:43:50;;;;;;;4.32;1.90;;;7.70;92.90;;;;;;6183831;23;20076;-72
2022/02/06 05:46:17;;;;;;;4.72;2.35;;;7.90;92.80;;;;;;6184466;23;20008;-72
2022/02/06 05:48:42;;;;;;;3.78;2.05;;;8.00;92.90;;;;;;6183997;23;20001;-72
2022/02/06 05:51:08;;;;;;;5.05;2.30;;;8.00;92.80;;;;;;6182374;23;20016;-72
2022/02/06 05:53:34;;;;;;;4.25;2.10;;;8.00;92.80;;;;;;6183974;23;20033;-72
2022/02/06 05:56:00;;;;;;;6.07;2.53;;;8.00;92.80;;;;;;6184592;23;20055;-72
2022/02/06 05:58:26;;;;;;;5.07;2.22;;;8.00;92.80;;;;;;6184514;23;20005;-73
2022/02/06 06:00:52;;;;;;;4.47;2.60;;;8.00;92.80;;;;;;6184449;23;20428;-72
2022/02/06 06:03:18;;;;;;;9.05;3.00;;;8.00;92.90;;;;;;6182532;23;20001;-72
2022/02/06 06:05:43;;;;;;;6.18;2.63;;;8.00;92.90;;;;;;6184600;23;19997;-72
2022/02/06 06:08:09;;;;;;;5.13;2.65;;;8.00;92.90;;;;;;6183783;23;20061;-73
2022/02/06 06:10:35;;;;;;;4.95;2.45;;;8.10;92.90;;;;;;6184339;23;20383;-72
2022/02/06 06:13:02;;;;;;;3.92;2.03;;;8.10;92.90;;;;;;6183939;23;20064;-72
2022/02/06 06:15:29;;;;;;;6.28;2.65;;;8.10;92.90;;;;;;6184112;23;20009;-72
2022/02/06 06:17:56;;;;;;;7.63;2.50;;;8.10;92.90;;;;;;6184565;23;20425;-71
2022/02/06 06:20:25;;;;;;;5.50;2.40;;;8.00;92.90;;;;;;6183704;23;20012;-72
2022/02/06 06:22:53;;;;;;;4.13;2.17;;;8.00;92.90;;;;;;6182454;23;20001;-71
2022/02/06 06:25:19;;;;;;;6.03;2.55;;;8.00;92.90;;;;;;6183905;23;20377;-72
2022/02/06 06:27:45;;;;;;;3.55;2.35;;;8.00;92.90;;;;;;6184220;23;20001;-72
2022/02/06 06:30:11;;;;;;;4.22;2.20;;;8.00;93.00;;;;;;6183734;23;20112;-72
2022/02/06 06:32:37;;;;;;;3.55;2.10;;;8.00;93.00;;;;;;6183680;23;20005;-71
2022/02/06 06:35:04;;;;;;;2.55;1.60;;;8.00;93.00;;;;;;6183881;23;20338;-71
2022/02/06 06:37:31;;;;;;;4.10;1.80;;;8.00;93.00;;;;;;6183673;23;20002;-72
2022/02/06 06:39:56;;;;;;;3.15;1.92;;;8.00;93.00;;;;;;6182130;23;20843;-72
2022/02/06 06:42:22;;;;;;;2.97;1.77;;;8.00;93.10;;;;;;6184285;23;20469;-72
2022/02/06 06:44:48;;;;;;;4.40;2.20;;;8.00;93.10;;;;;;6184056;23;19997;-72
2022/02/06 06:47:14;;;;;;;3.10;2.10;;;8.00;93.10;;;;;;6183695;23;19997;-72
2022/02/06 06:49:40;;;;;;;5.07;1.98;;;8.00;93.10;;;;;;6183587;23;20009;-72
2022/02/06 06:52:07;;;;;;;4.53;2.30;;;8.00;93.10;;;;;;6154867;23;20017;-72
2022/02/06 06:54:38;;;;;;;4.28;2.25;;;8.00;93.10;;;;;;6179363;23;20006;-72
2022/02/06 06:57:19;;;;;;;5.50;2.40;;;8.00;93.10;;;;;;6182015;23;20001;-71
2022/02/06 07:00:23;;;;;;;3.83;2.00;;;8.00;93.10;;;;;;6183990;23;20870;-72
2022/02/06 07:02:30;;;;;;;4.38;1.80;;;8.00;93.10;;;;;;6183440;23;20084;-71
2022/02/06 07:04:58;;;;;;;4.13;1.90;;;7.90;93.10;;;;;;6157124;23;20079;-71
2022/02/06 07:07:26;;;;;;;3.92;1.90;;;7.90;93.10;;;;;;6183730;23;20005;-72
2022/02/06 07:09:52;;;;;;;3.13;1.80;;;7.90;93.10;;;;;;6182218;23;20510;-72
2022/02/06 07:12:18;;;;;;;3.72;1.92;;;7.90;93.10;;;;;;6184132;23;20314;-72
2022/02/06 07:14:46;;;;;;;2.20;1.70;;;8.00;93.20;;;;;;6183507;23;20425;-72
2022/02/06 07:17:12;;;;;;;2.97;1.80;;;8.00;93.20;;;;;;6183610;23;20001;-72
2022/02/06 07:19:39;;;;;;;3.83;2.10;;;8.00;93.20;;;;;;6183639;23;20028;-72
2022/02/06 07:22:06;;;;;;;2.95;2.03;;;8.00;93.20;;;;;;6181958;23;20001;-71
2022/02/06 07:24:33;;;;;;;3.65;1.90;;;8.00;93.20;;;;;;6181929;23;20381;-71
2022/02/06 07:27:02;;;;;;;2.95;2.05;;;7.90;93.20;;;;;;6182085;23;19997;-71
2022/02/06 07:29:29;;;;;;;2.42;1.45;;;7.90;93.20;;;;;;6183638;23;20024;-71
2022/02/06 07:31:56;;;;;;;3.60;1.90;;;7.90;93.20;;;;;;6156842;23;20096;-71
2022/02/06 07:34:23;;;;;;;2.97;1.80;;;8.00;93.20;;;;;;6183769;23;20028;-71
2022/02/06 07:36:48;;;;;;;2.58;1.58;;;8.00;93.20;;;;;;6181813;23;20013;-72
2022/02/06 07:39:14;;;;;;;3.88;1.80;;;8.00;93.20;;;;;;6183414;23;20009;-72
2022/02/06 07:41:40;;;;;;;4.05;2.00;;;8.00;93.20;;;;;;6183784;23;20012;-72
2022/02/06 07:44:06;;;;;;;4.07;2.15;;;8.00;93.20;;;;;;6183616;23;20329;-72
2022/02/06 07:46:41;;;;;;;3.50;1.95;;;8.00;93.20;;;;;;6183662;23;20321;-72
2022/02/06 07:49:07;;;;;;;3.38;2.13;;;8.10;93.20;;;;;;6183679;23;20028;-72
2022/02/06 07:51:35;;;;;;;3.85;2.00;;;8.10;93.20;;;;;;6183815;23;19997;-72
2022/02/06 07:54:02;;;;;;;3.13;1.90;;;8.00;93.10;;;;;;6179688;23;20088;-72
2022/02/06 07:56:27;;;;;;;3.10;2.00;;;8.10;93.20;;;;;;6183692;23;20483;-72
2022/02/06 07:58:53;;;;;;;3.58;1.90;;;8.10;93.20;;;;;;6183608;23;20001;-72
2022/02/06 08:01:19;;;;;;;2.55;1.85;;;8.10;93.10;;;;;;6183453;23;20009;-72
2022/02/06 08:03:44;;;;;;;3.13;1.95;;;8.10;93.20;;;;;;6183650;23;20307;-73
2022/02/06 08:06:12;;;;;;;3.00;1.88;;;8.10;93.20;;;;;;6183625;23;20005;-73
2022/02/06 08:08:38;;;;;;;3.95;2.10;;;8.10;93.20;;;;;;6183621;23;20005;-73
2022/02/06 08:11:04;;;;;;;3.17;2.10;;;8.10;93.20;;;;;;6183512;23;20083;-73
2022/02/06 08:13:44;;;;;;;4.55;2.10;;;8.10;93.20;;;;;;6183838;23;20469;-73
2022/02/06 08:16:10;;;;;;;3.00;2.03;;;8.10;93.20;;;;;;6183054;23;20405;-73
2022/02/06 08:18:40;;;;;;;3.88;2.20;;;8.10;93.20;;;;;;6183749;23;20009;-73
2022/02/06 08:21:07;;;;;;;3.75;1.98;;;8.10;93.20;;;;;;6183301;23;20084;-73
2022/02/06 08:23:33;;;;;;;3.30;1.98;;;8.20;93.20;;;;;;6182909;23;20413;-72
2022/02/06 08:25:59;;;;;;;4.05;2.20;;;8.20;93.20;;;;;;6183703;23;20025;-72
2022/02/06 08:28:25;;;;;;;4.75;2.30;;;8.20;93.20;;;;;;6183852;23;19997;-73
2022/02/06 08:30:51;;;;;;;3.53;1.98;;;8.20;93.20;;;;;;6183652;23;20012;-73
2022/02/06 08:33:17;;;;;;;3.63;1.95;;;8.20;93.20;;;;;;6183428;23;20328;-72
2022/02/06 08:35:42;;;;;;;4.47;2.25;;;8.20;93.20;;;;;;6181380;23;20006;-73
2022/02/06 08:38:10;;;;;;;3.35;2.15;;;8.20;93.20;;;;;;6183597;23;20092;-72
2022/02/06 08:40:36;;;;;;;3.70;2.17;;;8.20;93.20;;;;;;6181680;23;20016;-72
2022/02/06 08:43:01;;;;;;;4.38;2.22;;;8.20;93.20;;;;;;6182953;23;20017;-74
2022/02/06 08:45:29;;;;;;;3.20;2.15;;;8.20;93.20;;;;;;6158562;23;20414;-73
2022/02/06 08:47:56;;;;;;;3.50;2.08;;;8.20;93.30;;;;;;6184920;23;20076;-73
2022/02/06 08:50:23;;;;;;;2.50;1.70;;;8.20;93.30;;;;;;6185008;23;20002;-70
2022/02/06 08:52:49;;;;;;;3.47;2.00;;;8.20;93.30;;;;;;6180560;23;20002;-71
2022/02/06 08:55:15;;;;;;;2.38;1.73;;;8.10;93.20;;;;;;6182844;23;20008;-71
2022/02/06 08:57:47;;;;;;;2.13;1.30;;;8.20;93.30;;;;;;6184252;23;20087;-71
2022/02/06 09:00:15;;;;;;;2.75;1.70;;;8.20;93.30;;;;;;6183989;23;20489;-70
2022/02/06 09:02:41;;;;;;;2.40;1.70;;;8.20;93.30;;;;;;6184692;23;20009;-71
2022/02/06 09:05:08;;;;;;;2.15;1.42;;;8.20;93.30;;;;;;6183953;23;20417;-72
2022/02/06 09:07:34;;;;;;;1.85;1.20;;;8.20;93.30;;;;;;6184452;23;20426;-70
2022/02/06 09:10:01;;;;;;;1.27;0.88;;;8.20;93.30;;;;;;6183981;23;20080;-71
2022/02/06 09:12:28;;;;;;;1.95;1.20;;;8.20;93.30;;;;;;6157643;23;20013;-70
2022/02/06 09:14:55;;;;;;;1.58;1.02;;;8.20;93.30;;;;;;6182533;23;20008;-70
2022/02/06 09:17:21;;;;;;;2.03;1.10;;;8.20;93.40;;;;;;6184253;23;20005;-70
2022/02/06 09:19:50;;;;;;;2.20;1.38;;;8.20;93.30;;;;;;6184206;23;20012;-71
2022/02/06 09:22:16;;;;;;;1.10;1.00;;;8.20;93.40;;;;;;6184304;23;20429;-72
2022/02/06 09:24:43;;;;;;;1.95;1.40;;;8.20;93.40;;;;;;6183815;23;20001;-71
2022/02/06 09:27:10;;;;;;;1.75;1.30;;;8.20;93.40;;;;;;6183975;23;20016;-72
2022/02/06 09:29:37;;;;;;;2.60;1.55;;;8.30;93.40;;;;;;6183886;23;20044;-71
2022/02/06 09:37:05;;;;;;;1.77;1.35;;;8.20;93.30;;;;;;6156460;23;20016;-74
2022/02/06 09:39:34;;;;;;;1.42;1.30;;;8.30;93.60;;;;;;6184012;23;20021;-73
2022/02/06 09:42:00;;;;;;;3.00;1.50;;;8.30;93.50;;;;;;6184064;23;20020;-72
2022/02/06 09:44:28;;;;;;;3.75;1.60;;;8.30;93.30;;;;;;6182254;23;20316;-71
2022/02/06 09:46:56;;;;;;;2.70;1.60;;;8.30;93.40;;;;;;6182756;23;20084;-72
2022/02/06 09:49:23;;;;;;;3.22;2.00;;;8.30;93.30;;;;;;6184740;23;20949;-72
2022/02/06 09:51:49;;;;;;;1.92;1.50;;;8.40;93.40;;;;;;6184376;23;20055;-71
2022/02/06 09:54:15;;;;;;;3.28;1.95;;;8.40;93.30;;;;;;6182058;23;20005;-73
2022/02/06 09:56:46;;;;;;;3.70;1.67;;;8.40;93.30;;;;;;6182223;23;20059;-71
2022/02/06 09:59:18;;;;;;;2.60;1.50;;;8.40;93.30;;;;;;6182294;23;20005;-72
2022/02/06 10:01:47;;;;;;;2.17;1.35;;;8.40;93.30;;;;;;6183812;23;20001;-71
2022/02/06 10:04:19;;;;;;;2.28;1.63;;;8.40;93.30;;;;;;6183799;23;20024;-71
2022/02/06 10:06:49;;;;;;;;;;;8.40;93.30;;;;;;6184701;23;19997;-71
2022/02/06 10:09:18;;;;;;;1.85;1.30;;;8.40;93.30;;;;;;6157428;23;19962;-72
2022/02/06 10:11:50;;;;;;;4.18;1.83;;;8.40;93.30;;;;;;6179902;23;20005;-71
2022/02/06 10:14:15;;;;;;;3.22;1.50;;;8.40;93.30;;;;;;6180533;23;20006;-72
2022/02/06 10:16:41;;;;;;;3.58;1.65;;;8.40;93.30;;;;;;6183789;23;20380;-71
2022/02/06 10:19:08;;;;;;;2.00;1.35;;;8.40;93.30;;;;;;6183957;23;19997;-72
2022/02/06 10:21:35;;;;;;;2.38;1.30;;;8.50;93.40;;;;;;6184170;23;20040;-71
2022/02/06 10:24:15;;;;;;;2.65;1.40;;;8.50;93.40;;;;;;6182179;23;20001;-71
2022/02/06 10:26:52;;;;;;;3.03;1.17;;;8.50;93.40;;;;;;6183894;23;20016;-71
2022/02/06 10:29:30;;;;;;;1.38;1.00;;;8.50;93.40;;;;;;6183823;23;20448;-71
2022/02/06 10:32:00;;;;;;;2.95;1.10;;;8.50;93.40;;;;;;6184269;23;20001;-72
2022/02/06 10:34:28;;;;;;;1.75;0.98;;;8.50;93.40;;;;;;6183604;23;20005;-71
2022/02/06 10:37:21;;;;;;;2.25;1.00;;;8.50;93.40;;;;;;6183687;23;20080;-71
2022/02/06 10:39:56;;;;;;;1.35;1.08;;;8.50;93.40;;;;;;6181997;23;20005;-72
2022/02/06 10:42:26;;;;;;;1.50;0.98;;;8.50;93.40;;;;;;6184289;23;20025;-71
2022/02/06 10:45:26;;;;;;;2.35;0.90;;;8.50;93.40;;;;;;6183819;23;20012;-71
2022/02/06 10:47:54;;;;;;;2.33;1.30;;;8.60;93.70;;;;;;6182389;23;20357;-70
2022/02/06 10:50:26;;;;;;;2.47;1.20;;;8.50;93.40;;;;;;6182208;23;19997;-72
2022/02/06 10:53:06;;;;;;;1.75;1.20;;;8.50;93.40;;;;;;6182300;23;20009;-73
2022/02/06 10:55:31;;;;;;;2.38;1.15;;;8.40;93.40;;;;;;6182342;23;20012;-72
2022/02/06 10:58:00;;;;;;;2.92;1.27;;;8.50;93.40;;;;;;6182005;23;20393;-72
2022/02/06 11:00:28;;;;;;;3.30;1.20;;;8.50;93.40;;;;;;6184148;23;20390;-73
2022/02/06 11:03:01;;;;;;;1.48;1.00;;;8.50;93.40;;;;;;6182795;23;20318;-73
2022/02/06 11:05:35;;;;;;;1.35;0.90;;;8.50;93.40;;;;;;6183512;23;20080;-72
2022/02/06 11:08:03;;;;;;;1.95;0.98;;;8.50;93.50;;;;;;6181383;23;19997;-73
2022/02/06 11:10:32;;;;;;;1.52;1.00;;;8.50;93.50;;;;;;6183820;23;20001;-72
2022/02/06 11:13:03;;;;;;;1.42;1.13;;;8.50;93.50;;;;;;6183589;23;20429;-72
2022/02/06 11:15:33;;;;;;;0.90;0.90;;;8.50;93.50;;;;;;6183755;23;20372;-73
2022/02/06 11:18:05;;;;;;;2.15;1.20;;;8.50;93.50;;;;;;6181960;23;20001;-72
2022/02/06 11:20:31;;;;;;;2.17;1.00;;;8.50;93.50;;;;;;6182324;23;20456;-72
2022/02/06 11:23:02;;;;;;;1.13;1.00;;;8.60;93.50;;;;;;6180960;23;20006;-73
2022/02/06 11:25:30;;;;;;;1.88;1.13;;;8.50;93.50;;;;;;6158442;23;20005;-72
2022/02/06 11:27:57;;;;;;;3.10;1.20;;;8.50;93.50;;;;;;6182842;23;20002;-71
2022/02/06 11:30:23;;;;;;;2.63;1.20;;;8.50;93.50;;;;;;6179276;23;20101;-72
2022/02/06 11:32:49;;;;;;;1.10;1.00;;;8.50;93.50;;;;;;6183698;23;20028;-72
2022/02/06 11:35:20;;;;;;;1.45;1.00;;;8.50;93.60;;;;;;6157087;23;20059;-74
2022/02/06 11:43:56;;;;;;;0.90;0.70;;;8.50;93.60;;;;;;6182562;23;20494;-72
2022/02/06 11:46:36;;;;;;;0.70;0.70;;;8.50;93.60;;;;;;6182120;23;19997;-71
2022/02/06 11:49:09;;;;;;;1.75;1.00;;;8.50;93.60;;;;;;6180751;23;19997;-72
2022/02/06 11:51:35;;;;;;;2.00;1.00;;;8.50;93.90;;;;;;6182285;23;20023;-72
2022/02/06 11:54:32;;;;;;;1.75;0.93;;;8.60;93.60;;;;;;6181659;23;20036;-73
2022/02/06 11:57:21;;;;;;;1.90;0.73;;;8.50;93.50;;;;;;6181477;23;20029;-74
2022/02/06 12:00:16;;;;;;;0.30;0.30;;;8.30;93.30;;;;;;6184466;23;20068;-73
2022/02/06 12:02:44;;;;;;;1.63;0.40;;;8.00;93.60;;;;;;6156929;23;20048;-73
2022/02/06 12:05:26;;;;;;;0.45;0.43;;;7.80;93.80;;;;;;6183324;23;20023;-73
2022/02/06 12:08:04;;;;;;;0.60;0.30;;;7.70;94.00;;;;;;6182265;23;19997;-73
2022/02/06 12:11:08;;;;;;;1.33;0.43;;;7.50;93.90;;;;;;6183883;23;20005;-73
2022/02/06 12:13:34;;;;;;;1.23;0.60;;;7.40;93.90;;;;;;6182140;23;20433;-73
2022/02/06 12:16:05;;;;;;;0.65;0.20;;;7.30;94.00;;;;;;6183612;23;20016;-72
2022/02/06 12:18:34;;;;;;;0.20;0.20;;;7.20;94.00;;;;;;6157957;23;20009;-73
2022/02/06 12:21:17;;;;;;;0.38;0.15;;;7.20;94.00;;;;;;6184848;23;20275;-73
2022/02/06 12:23:50;;;;;;;0.93;0.20;;;7.10;94.00;;;;;;6183451;23;20357;-73
2022/02/06 12:26:38;;;;;;;0.10;0.10;;;7.10;93.90;;;;;;6184113;23;20055;-73
2022/02/06 12:29:09;;;;;;;0.10;0.10;;;7.00;93.90;;;;;;6159030;23;20051;-73
2022/02/06 12:32:01;;;;;;;0.10;0.10;;;7.00;93.90;;;;;;6184581;23;20384;-73
2022/02/06 12:37:40;;;;;;;0.10;0.10;;;7.00;93.90;;;;;;6184201;23;20086;-72
2022/02/06 12:40:10;;;;;;;0.30;0.20;;;7.00;94.10;;;;;;6184724;23;20009;-73
2022/02/06 12:42:47;;;;;;;0.30;0.10;;;7.00;93.80;;;;;;6184382;23;20001;-73
2022/02/06 12:45:16;;;;;;;0.10;0.10;;;7.00;93.80;;;;;;6182974;23;20001;-73
2022/02/06 12:47:45;;;;;;;0.10;0.10;;;7.10;93.80;;;;;;6182454;23;20016;-72
2022/02/06 12:50:21;;;;;;;0.70;0.20;;;7.00;93.80;;;;;;6182655;23;20079;-72
2022/02/06 12:52:48;;;;;;;0.15;0.10;;;7.00;93.80;;;;;;6181860;23;20009;-72
2022/02/06 12:55:14;;;;;;;0.20;0.20;;;7.00;93.70;;;;;;6184234;23;20283;-73
2022/02/06 12:57:44;;;;;;;0.25;0.20;;;7.00;93.70;;;;;;6184228;23;20013;-72
2022/02/06 13:00:26;;;;;;;0.47;0.22;;;7.00;93.70;;;;;;6158016;23;20013;-72
2022/02/06 13:02:53;;;;;;;1.23;0.45;;;6.90;93.70;;;;;;6184122;23;20032;-72
2022/02/06 13:05:20;;;;;;;0.38;0.30;;;7.00;93.70;;;;;;6184316;23;20001;-73
2022/02/06 13:07:46;;;;;;;1.35;0.30;;;7.00;93.60;;;;;;6157684;23;20010;-71
2022/02/06 13:10:13;;;;;;;0.80;0.30;;;7.00;93.60;;;;;;6182773;23;20005;-71
2022/02/06 13:12:47;;;;;;;1.48;0.32;;;6.90;93.60;;;;;;6182679;23;20001;-71
2022/02/06 13:29:23;;;;;;;0.75;0.20;;;7.20;93.40;;;;;;6183588;23;20059;-72
2022/02/06 13:32:20;;;;;;;0.85;0.30;;;7.30;93.40;;;;;;6184109;23;20037;-73
2022/02/06 13:37:27;;;;;;;1.63;0.35;;;7.30;93.30;;;;;;6160906;23;20009;-72
2022/02/06 13:39:57;;;;;;;0.63;0.25;;;7.30;93.20;;;;;;6183827;23;20013;-73
2022/02/06 13:42:30;;;;;;;2.25;0.40;;;7.30;93.20;;;;;;6184028;23;20080;-71
2022/02/06 13:45:12;;;;;;;1.33;0.40;;;7.40;93.20;;;;;;6153989;23;20092;-71
2022/02/06 13:47:37;;;;;;;;;;;7.50;93.10;;;;;;6157841;23;20425;-71
2022/02/06 13:50:08;;;;;;;1.15;0.55;;;7.50;93.10;;;;;;6182623;23;19900;-71
2022/02/06 13:52:34;;;;;;;3.15;0.45;;;7.50;93.00;;;;;;6158196;23;20001;-72
2022/02/06 13:55:05;;;;;;;2.35;0.68;;;7.60;93.00;;;;;;6157494;23;20116;-72
2022/02/06 13:57:33;;;;;;;;;;;7.60;92.90;;;;;;6158065;23;20033;-72
2022/02/06 14:00:09;;;;;;;2.90;0.40;;;7.60;92.80;;;;;;6183827;23;19912;-71
2022/02/06 14:02:35;;;;;;;1.35;0.52;;;7.60;92.70;;;;;;6182317;23;20004;-72
2022/02/06 14:05:06;;;;;;;3.35;0.80;;;7.70;92.70;;;;;;6182388;23;19997;-72
2022/02/06 14:07:31;;;;;;;2.00;0.60;;;7.70;92.70;;;;;;6182568;23;20448;-73
2022/02/06 14:10:06;;;;;;;1.48;0.47;;;7.70;92.60;;;;;;6184428;23;20001;-72
2022/02/06 14:12:52;;;;;;;2.25;0.60;;;7.70;92.60;;;;;;6182343;23;20051;-72
2022/02/06 14:15:24;;;;;;;1.65;0.60;;;7.80;92.60;;;;;;6183907;23;20005;-72
2022/02/06 14:17:52;;;;;;;5.07;0.93;;;7.80;92.60;;;;;;6183984;23;20008;-72
2022/02/06 14:20:24;;;;;;;2.67;0.73;;;7.80;92.60;;;;;;6182359;23;20133;-72
2022/02/06 14:22:53;;;;;;;1.60;0.60;;;7.80;92.60;;;;;;6156455;23;20029;-72
2022/02/06 14:25:35;;;;;;;4.13;0.80;;;7.80;92.60;;;;;;6182037;23;20056;-72
2022/02/06 14:28:23;;;;;;;2.88;1.05;;;7.80;92.50;;;;;;6182468;23;19997;-72
2022/02/06 14:30:49;;;;;;;2.63;0.80;;;7.80;92.50;;;;;;6183592;23;20059;-71
2022/02/06 14:33:24;;;;;;;2.17;0.68;;;7.90;92.50;;;;;;6182218;23;20024;-72
2022/02/06 14:35:55;;;;;;;1.08;0.50;;;7.90;92.50;;;;;;6182404;23;20001;-72
2022/02/06 14:38:41;;;;;;;0.73;0.40;;;7.90;92.50;;;;;;6180698;23;20008;-72
2022/02/06 14:43:58;;;;;;;2.38;0.77;;;7.90;92.40;;;;;;6181500;23;20005;-71
2022/02/06 14:46:25;;;;;;;;;;;8.00;92.40;;;;;;6184617;23;20005;-72
2022/02/06 14:48:51;;;;;;;2.45;0.77;;;8.00;92.30;;;;;;6183756;23;19901;-72
2022/02/06 14:51:19;;;;;;;3.17;0.95;;;8.10;92.20;;;;;;6183612;23;20052;-73
2022/02/06 14:53:45;;;;;;;3.75;0.90;;;8.10;92.10;;;;;;6182026;23;20793;-73
2022/02/06 14:56:12;;;;;;;4.50;1.17;;;8.10;92.30;;;;;;6183541;23;20005;-73
2022/02/06 14:58:39;;;;;;;3.13;0.90;;;8.20;92.00;;;;;;6184307;23;20012;-73
2022/02/06 15:01:05;;;;;;;6.43;1.08;;;8.30;91.90;;;;;;6184172;23;20019;-72
2022/02/06 15:03:31;;;;;;;2.78;0.82;;;8.40;91.80;;;;;;6184146;23;20076;-73
2022/02/06 15:05:57;;;;;;;2.95;0.68;;;8.40;91.60;;;;;;6157559;23;20021;-72